Hlavní strana
METAR-TAF:

METAR-TAF

Letiště :

Batumi, Gruzie

zeměpisná šířka: 41-36-37N, zeměpisná délka: 041-35-58E, výška: 32 m

Aktuální stav počasí

Zpráva byla vytvořena před 24 minutami, v 04:30 UTC
Jihovýchodní vítr 22 kt
Teplota 11°C
Vlhkost vzduchu 43%
Tlak 1022 hPa
Viditelnost 10 km a více
Žádná oblačnost pod 1500 m, nevyskytují se cumulonimby.

METAR: UGSB 180430Z 13022KT CAVOK 11/M01 Q1022 NOSIG

Čas: 08:54 (04:54 UTC)

Předpověď počasí

Zpráva byla vytvořena před 5 hodinami a 54 minutami, v 23:00 UTC
Předpověď platná od 18 v 00 UTC do 18 v 24 UTC
Východojihovýchodní vítr 15 kt
Viditelnost 10 km a více
Žádná oblačnost pod 1500 m, nevyskytují se cumulonimby.
Dočasný
od 18 v 00 UTC do 18 v 07 UTC
Jihovýchodní vítr 25 kt
Změna
od 18 v 08 UTC do 18 v 10 UTC
Severní vítr 6 kt
Změna
od 18 v 15 UTC do 18 v 17 UTC
Jihovýchodní vítr 13 kt

TAF: UGSB 172300Z 1800/1824 12015KT CAVOK TX18/1810Z TN09/1802Z TEMPO 1800/1807 13025KT BECMG 1808/1810 36006KT BECMG 1815/1817 13013KT

Stav a předpovědi počasí z více než 4 000 letišť (zprávy METAR a TAF).

Červené a žluté tečky na mapě představují dostupné meteorologické stanice.

Když kurzor umístíte na tečku, zobrazí se název stanice.

Pak kliknutím zobrazíte stav a předpověď počasí.

Chcete-li změnit mapu, kliknutím na zelené tlačítko se znaménkem +mapu přiblížíte, kliknutím na zelené tlačítko se znaménkem – mapu oddálíte a kliknutím na zelené šipky přejdete na sousední mapy.


METAR-TAF: